sensor_id;sensor_type;location;lat;lon;timestamp;P1;durP1;ratioP1;P2;durP2;ratioP2
27187;SDS011;14708;50.872;5.306;2023-06-10T00:02:00;4.22;;;3.83;;
27187;SDS011;14708;50.872;5.306;2023-06-10T00:04:26;3.65;;;3.35;;
27187;SDS011;14708;50.872;5.306;2023-06-10T00:06:52;3.97;;;3.25;;
27187;SDS011;14708;50.872;5.306;2023-06-10T00:09:18;3.47;;;3.17;;
27187;SDS011;14708;50.872;5.306;2023-06-10T00:11:46;4.07;;;3.70;;
27187;SDS011;14708;50.872;5.306;2023-06-10T00:14:12;3.50;;;3.20;;
27187;SDS011;14708;50.872;5.306;2023-06-10T00:16:38;4.03;;;3.30;;
27187;SDS011;14708;50.872;5.306;2023-06-10T00:19:04;4.03;;;3.63;;
27187;SDS011;14708;50.872;5.306;2023-06-10T00:21:30;3.80;;;3.47;;
27187;SDS011;14708;50.872;5.306;2023-06-10T00:24:05;3.55;;;3.25;;
27187;SDS011;14708;50.872;5.306;2023-06-10T00:26:40;3.50;;;3.20;;
27187;SDS011;14708;50.872;5.306;2023-06-10T00:31:33;4.05;;;3.33;;
27187;SDS011;14708;50.872;5.306;2023-06-10T00:33:59;3.60;;;3.30;;
27187;SDS011;14708;50.872;5.306;2023-06-10T00:36:25;3.63;;;3.33;;
27187;SDS011;14708;50.872;5.306;2023-06-10T00:38:51;3.55;;;3.25;;
27187;SDS011;14708;50.872;5.306;2023-06-10T00:41:17;4.05;;;3.55;;
27187;SDS011;14708;50.872;5.306;2023-06-10T00:43:43;3.80;;;3.50;;
27187;SDS011;14708;50.872;5.306;2023-06-10T00:46:09;3.90;;;3.60;;
27187;SDS011;14708;50.872;5.306;2023-06-10T00:48:36;3.55;;;3.25;;
27187;SDS011;14708;50.872;5.306;2023-06-10T00:51:04;3.30;;;3.00;;
27187;SDS011;14708;50.872;5.306;2023-06-10T00:53:30;4.05;;;3.60;;
27187;SDS011;14708;50.872;5.306;2023-06-10T00:55:57;4.38;;;3.58;;
27187;SDS011;14708;50.872;5.306;2023-06-10T00:58:24;3.90;;;3.60;;
27187;SDS011;14708;50.872;5.306;2023-06-10T01:00:50;5.32;;;3.17;;
27187;SDS011;14708;50.872;5.306;2023-06-10T01:03:16;4.10;;;3.70;;
27187;SDS011;14708;50.872;5.306;2023-06-10T01:05:43;4.15;;;3.05;;
27187;SDS011;14708;50.872;5.306;2023-06-10T01:08:19;3.42;;;3.13;;
27187;SDS011;14708;50.872;5.306;2023-06-10T01:10:59;3.80;;;3.42;;
27187;SDS011;14708;50.872;5.306;2023-06-10T01:13:26;3.53;;;3.22;;
27187;SDS011;14708;50.872;5.306;2023-06-10T01:15:57;4.63;;;3.67;;
27187;SDS011;14708;50.872;5.306;2023-06-10T01:20:55;3.38;;;3.08;;
27187;SDS011;14708;50.872;5.306;2023-06-10T01:23:21;3.50;;;3.20;;
27187;SDS011;14708;50.872;5.306;2023-06-10T01:25:55;3.20;;;2.92;;
27187;SDS011;14708;50.872;5.306;2023-06-10T01:33:52;4.40;;;4.00;;
27187;SDS011;14708;50.872;5.306;2023-06-10T01:36:19;3.70;;;3.35;;
27187;SDS011;14708;50.872;5.306;2023-06-10T01:38:47;5.60;;;4.35;;
27187;SDS011;14708;50.872;5.306;2023-06-10T01:41:13;3.28;;;3.08;;
27187;SDS011;14708;50.872;5.306;2023-06-10T01:46:08;4.15;;;3.53;;
27187;SDS011;14708;50.872;5.306;2023-06-10T01:48:34;3.72;;;3.42;;
27187;SDS011;14708;50.872;5.306;2023-06-10T01:51:00;3.60;;;3.30;;
27187;SDS011;14708;50.872;5.306;2023-06-10T01:53:26;3.40;;;3.10;;
27187;SDS011;14708;50.872;5.306;2023-06-10T01:55:51;3.67;;;3.38;;
27187;SDS011;14708;50.872;5.306;2023-06-10T01:58:17;4.15;;;3.55;;
27187;SDS011;14708;50.872;5.306;2023-06-10T02:00:42;3.92;;;3.53;;
27187;SDS011;14708;50.872;5.306;2023-06-10T02:03:08;3.63;;;3.30;;
27187;SDS011;14708;50.872;5.306;2023-06-10T02:05:34;3.78;;;3.42;;
27187;SDS011;14708;50.872;5.306;2023-06-10T02:07:59;3.80;;;3.42;;
27187;SDS011;14708;50.872;5.306;2023-06-10T02:10:25;3.70;;;3.25;;
27187;SDS011;14708;50.872;5.306;2023-06-10T02:12:51;4.07;;;3.67;;
27187;SDS011;14708;50.872;5.306;2023-06-10T02:15:16;4.20;;;3.80;;
27187;SDS011;14708;50.872;5.306;2023-06-10T02:17:42;3.70;;;3.40;;
27187;SDS011;14708;50.872;5.306;2023-06-10T02:20:09;4.32;;;3.92;;
27187;SDS011;14708;50.872;5.306;2023-06-10T02:22:36;3.97;;;3.55;;
27187;SDS011;14708;50.872;5.306;2023-06-10T02:25:02;3.53;;;3.22;;
27187;SDS011;14708;50.872;5.306;2023-06-10T02:27:28;3.97;;;3.63;;
27187;SDS011;14708;50.872;5.306;2023-06-10T02:29:55;4.07;;;3.67;;
27187;SDS011;14708;50.872;5.306;2023-06-10T02:32:21;3.45;;;3.22;;
27187;SDS011;14708;50.872;5.306;2023-06-10T02:34:47;3.60;;;3.30;;
27187;SDS011;14708;50.872;5.306;2023-06-10T02:37:14;4.32;;;3.35;;
27187;SDS011;14708;50.872;5.306;2023-06-10T02:39:40;3.85;;;3.45;;
27187;SDS011;14708;50.872;5.306;2023-06-10T02:42:06;3.72;;;3.40;;
27187;SDS011;14708;50.872;5.306;2023-06-10T02:44:31;3.47;;;3.17;;
27187;SDS011;14708;50.872;5.306;2023-06-10T02:46:57;3.50;;;3.20;;
27187;SDS011;14708;50.872;5.306;2023-06-10T02:49:23;3.88;;;3.58;;
27187;SDS011;14708;50.872;5.306;2023-06-10T02:51:50;3.92;;;3.53;;
27187;SDS011;14708;50.872;5.306;2023-06-10T02:54:24;4.00;;;3.70;;
27187;SDS011;14708;50.872;5.306;2023-06-10T02:56:51;4.03;;;3.72;;
27187;SDS011;14708;50.872;5.306;2023-06-10T02:59:17;3.63;;;3.33;;
27187;SDS011;14708;50.872;5.306;2023-06-10T03:01:43;4.07;;;3.65;;
27187;SDS011;14708;50.872;5.306;2023-06-10T03:04:08;3.88;;;3.58;;
27187;SDS011;14708;50.872;5.306;2023-06-10T03:06:34;3.55;;;3.25;;
27187;SDS011;14708;50.872;5.306;2023-06-10T03:09:00;3.63;;;3.00;;
27187;SDS011;14708;50.872;5.306;2023-06-10T03:11:26;3.97;;;3.58;;
27187;SDS011;14708;50.872;5.306;2023-06-10T03:13:52;3.95;;;3.65;;
27187;SDS011;14708;50.872;5.306;2023-06-10T03:16:21;3.38;;;3.08;;
27187;SDS011;14708;50.872;5.306;2023-06-10T03:18:46;4.38;;;3.97;;
27187;SDS011;14708;50.872;5.306;2023-06-10T03:21:12;4.00;;;3.70;;
27187;SDS011;14708;50.872;5.306;2023-06-10T03:23:37;3.63;;;3.33;;
27187;SDS011;14708;50.872;5.306;2023-06-10T03:26:04;3.80;;;3.50;;
27187;SDS011;14708;50.872;5.306;2023-06-10T03:28:32;4.47;;;3.75;;
27187;SDS011;14708;50.872;5.306;2023-06-10T03:30:58;3.65;;;3.35;;
27187;SDS011;14708;50.872;5.306;2023-06-10T03:33:23;3.85;;;3.55;;
27187;SDS011;14708;50.872;5.306;2023-06-10T03:35:49;3.10;;;2.80;;
27187;SDS011;14708;50.872;5.306;2023-06-10T03:38:15;4.25;;;3.78;;
27187;SDS011;14708;50.872;5.306;2023-06-10T03:40:41;3.50;;;3.20;;
27187;SDS011;14708;50.872;5.306;2023-06-10T03:43:07;5.18;;;4.68;;
27187;SDS011;14708;50.872;5.306;2023-06-10T03:45:32;3.58;;;3.22;;
27187;SDS011;14708;50.872;5.306;2023-06-10T03:47:58;4.38;;;3.97;;
27187;SDS011;14708;50.872;5.306;2023-06-10T03:50:24;4.00;;;3.60;;
27187;SDS011;14708;50.872;5.306;2023-06-10T03:52:50;3.83;;;3.53;;
27187;SDS011;14708;50.872;5.306;2023-06-10T03:55:16;3.80;;;3.50;;
27187;SDS011;14708;50.872;5.306;2023-06-10T03:57:42;4.00;;;3.70;;
27187;SDS011;14708;50.872;5.306;2023-06-10T04:00:08;3.63;;;3.33;;
27187;SDS011;14708;50.872;5.306;2023-06-10T04:02:38;3.75;;;3.45;;
27187;SDS011;14708;50.872;5.306;2023-06-10T04:05:13;3.58;;;3.28;;
27187;SDS011;14708;50.872;5.306;2023-06-10T04:07:40;4.55;;;4.15;;
27187;SDS011;14708;50.872;5.306;2023-06-10T04:10:07;3.78;;;3.47;;
27187;SDS011;14708;50.872;5.306;2023-06-10T04:12:33;4.00;;;3.70;;
27187;SDS011;14708;50.872;5.306;2023-06-10T04:14:59;3.75;;;3.45;;
27187;SDS011;14708;50.872;5.306;2023-06-10T04:17:25;3.92;;;3.63;;
27187;SDS011;14708;50.872;5.306;2023-06-10T04:19:51;4.10;;;3.70;;
27187;SDS011;14708;50.872;5.306;2023-06-10T04:22:18;4.38;;;3.97;;
27187;SDS011;14708;50.872;5.306;2023-06-10T04:24:44;4.47;;;4.07;;
27187;SDS011;14708;50.872;5.306;2023-06-10T04:27:10;4.10;;;3.78;;
27187;SDS011;14708;50.872;5.306;2023-06-10T04:29:36;3.95;;;3.10;;
27187;SDS011;14708;50.872;5.306;2023-06-10T04:32:02;3.42;;;3.13;;
27187;SDS011;14708;50.872;5.306;2023-06-10T04:34:27;3.45;;;3.15;;
27187;SDS011;14708;50.872;5.306;2023-06-10T04:36:53;3.80;;;3.50;;
27187;SDS011;14708;50.872;5.306;2023-06-10T04:39:19;3.90;;;3.60;;
27187;SDS011;14708;50.872;5.306;2023-06-10T04:41:45;3.22;;;3.03;;
27187;SDS011;14708;50.872;5.306;2023-06-10T04:44:11;3.38;;;3.08;;
27187;SDS011;14708;50.872;5.306;2023-06-10T04:46:37;3.42;;;3.13;;
27187;SDS011;14708;50.872;5.306;2023-06-10T04:49:03;2.80;;;2.60;;
27187;SDS011;14708;50.872;5.306;2023-06-10T04:51:29;3.78;;;3.47;;
27187;SDS011;14708;50.872;5.306;2023-06-10T04:53:56;3.63;;;3.33;;
27187;SDS011;14708;50.872;5.306;2023-06-10T04:56:22;3.97;;;3.67;;
27187;SDS011;14708;50.872;5.306;2023-06-10T04:58:48;3.42;;;3.13;;
27187;SDS011;14708;50.872;5.306;2023-06-10T05:01:14;3.25;;;3.00;;
27187;SDS011;14708;50.872;5.306;2023-06-10T05:03:40;3.50;;;3.20;;
27187;SDS011;14708;50.872;5.306;2023-06-10T05:06:06;3.42;;;3.13;;
27187;SDS011;14708;50.872;5.306;2023-06-10T05:08:32;3.25;;;2.95;;
27187;SDS011;14708;50.872;5.306;2023-06-10T05:10:58;3.28;;;2.97;;
27187;SDS011;14708;50.872;5.306;2023-06-10T05:13:23;3.13;;;2.92;;
27187;SDS011;14708;50.872;5.306;2023-06-10T05:15:49;3.90;;;3.17;;
27187;SDS011;14708;50.872;5.306;2023-06-10T05:18:15;3.33;;;3.03;;
27187;SDS011;14708;50.872;5.306;2023-06-10T05:20:40;2.92;;;2.72;;
27187;SDS011;14708;50.872;5.306;2023-06-10T05:23:06;3.60;;;3.30;;
27187;SDS011;14708;50.872;5.306;2023-06-10T05:25:31;3.90;;;3.50;;
27187;SDS011;14708;50.872;5.306;2023-06-10T05:27:57;3.92;;;3.30;;
27187;SDS011;14708;50.872;5.306;2023-06-10T05:30:23;3.15;;;2.95;;
27187;SDS011;14708;50.872;5.306;2023-06-10T05:32:50;3.05;;;2.80;;
27187;SDS011;14708;50.872;5.306;2023-06-10T05:35:18;3.00;;;2.80;;
27187;SDS011;14708;50.872;5.306;2023-06-10T05:37:44;3.88;;;3.50;;
27187;SDS011;14708;50.872;5.306;2023-06-10T05:40:10;3.38;;;3.08;;
27187;SDS011;14708;50.872;5.306;2023-06-10T05:42:36;3.72;;;3.42;;
27187;SDS011;14708;50.872;5.306;2023-06-10T05:45:02;3.65;;;3.35;;
27187;SDS011;14708;50.872;5.306;2023-06-10T05:47:28;3.08;;;2.78;;
27187;SDS011;14708;50.872;5.306;2023-06-10T05:49:54;3.10;;;2.80;;
27187;SDS011;14708;50.872;5.306;2023-06-10T05:52:20;3.05;;;2.85;;
27187;SDS011;14708;50.872;5.306;2023-06-10T05:54:45;3.40;;;3.10;;
27187;SDS011;14708;50.872;5.306;2023-06-10T05:57:11;3.55;;;3.25;;
27187;SDS011;14708;50.872;5.306;2023-06-10T05:59:37;3.20;;;2.90;;
27187;SDS011;14708;50.872;5.306;2023-06-10T06:02:02;3.35;;;3.05;;
27187;SDS011;14708;50.872;5.306;2023-06-10T06:04:28;3.63;;;3.30;;
27187;SDS011;14708;50.872;5.306;2023-06-10T06:06:54;5.80;;;4.35;;
27187;SDS011;14708;50.872;5.306;2023-06-10T06:09:19;3.95;;;3.60;;
27187;SDS011;14708;50.872;5.306;2023-06-10T06:11:45;4.68;;;4.22;;
27187;SDS011;14708;50.872;5.306;2023-06-10T06:14:11;5.35;;;4.47;;
27187;SDS011;14708;50.872;5.306;2023-06-10T06:16:36;7.25;;;5.05;;
27187;SDS011;14708;50.872;5.306;2023-06-10T06:19:02;9.15;;;4.88;;
27187;SDS011;14708;50.872;5.306;2023-06-10T06:21:27;6.72;;;5.30;;
27187;SDS011;14708;50.872;5.306;2023-06-10T06:23:53;5.38;;;4.60;;
27187;SDS011;14708;50.872;5.306;2023-06-10T06:26:19;6.35;;;5.18;;
27187;SDS011;14708;50.872;5.306;2023-06-10T06:28:44;7.13;;;5.43;;
27187;SDS011;14708;50.872;5.306;2023-06-10T06:31:10;10.57;;;6.32;;
27187;SDS011;14708;50.872;5.306;2023-06-10T06:33:36;10.13;;;5.95;;
27187;SDS011;14708;50.872;5.306;2023-06-10T06:36:01;8.85;;;6.72;;
27187;SDS011;14708;50.872;5.306;2023-06-10T06:38:27;9.23;;;5.60;;
27187;SDS011;14708;50.872;5.306;2023-06-10T06:40:53;28.88;;;9.73;;
27187;SDS011;14708;50.872;5.306;2023-06-10T06:43:19;18.95;;;8.18;;
27187;SDS011;14708;50.872;5.306;2023-06-10T06:45:44;27.98;;;9.70;;
27187;SDS011;14708;50.872;5.306;2023-06-10T06:48:11;30.63;;;9.80;;
27187;SDS011;14708;50.872;5.306;2023-06-10T06:50:37;39.17;;;10.95;;
27187;SDS011;14708;50.872;5.306;2023-06-10T06:53:03;31.27;;;9.40;;
27187;SDS011;14708;50.872;5.306;2023-06-10T06:55:29;24.77;;;9.32;;
27187;SDS011;14708;50.872;5.306;2023-06-10T06:57:54;32.22;;;10.02;;
27187;SDS011;14708;50.872;5.306;2023-06-10T07:00:20;28.60;;;10.70;;
27187;SDS011;14708;50.872;5.306;2023-06-10T07:02:46;30.58;;;9.85;;
27187;SDS011;14708;50.872;5.306;2023-06-10T07:05:13;27.67;;;9.73;;
27187;SDS011;14708;50.872;5.306;2023-06-10T07:07:38;27.33;;;9.98;;
27187;SDS011;14708;50.872;5.306;2023-06-10T07:10:04;18.10;;;8.50;;
27187;SDS011;14708;50.872;5.306;2023-06-10T07:12:30;26.25;;;9.57;;
27187;SDS011;14708;50.872;5.306;2023-06-10T07:14:55;21.85;;;9.07;;
27187;SDS011;14708;50.872;5.306;2023-06-10T07:17:21;18.80;;;8.73;;
27187;SDS011;14708;50.872;5.306;2023-06-10T07:19:47;20.98;;;8.55;;
27187;SDS011;14708;50.872;5.306;2023-06-10T07:22:12;24.42;;;7.95;;
27187;SDS011;14708;50.872;5.306;2023-06-10T07:24:39;19.50;;;9.35;;
27187;SDS011;14708;50.872;5.306;2023-06-10T07:27:04;21.52;;;8.43;;
27187;SDS011;14708;50.872;5.306;2023-06-10T07:29:30;17.75;;;9.27;;
27187;SDS011;14708;50.872;5.306;2023-06-10T07:31:56;22.20;;;8.73;;
27187;SDS011;14708;50.872;5.306;2023-06-10T07:34:22;17.70;;;9.23;;
27187;SDS011;14708;50.872;5.306;2023-06-10T07:36:47;13.80;;;7.28;;
27187;SDS011;14708;50.872;5.306;2023-06-10T07:39:13;16.08;;;8.40;;
27187;SDS011;14708;50.872;5.306;2023-06-10T07:41:38;17.92;;;8.40;;
27187;SDS011;14708;50.872;5.306;2023-06-10T07:44:04;19.52;;;9.27;;
27187;SDS011;14708;50.872;5.306;2023-06-10T07:46:30;28.50;;;9.07;;
27187;SDS011;14708;50.872;5.306;2023-06-10T07:48:55;17.58;;;8.57;;
27187;SDS011;14708;50.872;5.306;2023-06-10T07:51:21;17.35;;;8.20;;
27187;SDS011;14708;50.872;5.306;2023-06-10T07:53:47;21.52;;;8.27;;
27187;SDS011;14708;50.872;5.306;2023-06-10T07:56:13;18.58;;;8.48;;
27187;SDS011;14708;50.872;5.306;2023-06-10T07:58:38;16.27;;;7.82;;
27187;SDS011;14708;50.872;5.306;2023-06-10T08:01:04;22.95;;;8.63;;
27187;SDS011;14708;50.872;5.306;2023-06-10T08:03:30;29.40;;;11.15;;
27187;SDS011;14708;50.872;5.306;2023-06-10T08:05:55;19.30;;;9.18;;
27187;SDS011;14708;50.872;5.306;2023-06-10T08:08:21;26.08;;;10.10;;
27187;SDS011;14708;50.872;5.306;2023-06-10T08:10:46;36.58;;;12.55;;
27187;SDS011;14708;50.872;5.306;2023-06-10T08:13:15;49.70;;;15.60;;
27187;SDS011;14708;50.872;5.306;2023-06-10T08:15:40;79.43;;;22.85;;
27187;SDS011;14708;50.872;5.306;2023-06-10T08:18:06;71.60;;;22.05;;
27187;SDS011;14708;50.872;5.306;2023-06-10T08:20:32;71.43;;;23.05;;
27187;SDS011;14708;50.872;5.306;2023-06-10T08:22:57;73.38;;;22.23;;
27187;SDS011;14708;50.872;5.306;2023-06-10T08:25:23;65.50;;;21.98;;
27187;SDS011;14708;50.872;5.306;2023-06-10T08:27:48;66.47;;;19.80;;
27187;SDS011;14708;50.872;5.306;2023-06-10T08:30:15;62.25;;;20.20;;
27187;SDS011;14708;50.872;5.306;2023-06-10T08:32:41;55.00;;;19.45;;
27187;SDS011;14708;50.872;5.306;2023-06-10T08:35:07;52.58;;;18.50;;
27187;SDS011;14708;50.872;5.306;2023-06-10T08:37:33;59.67;;;19.10;;
27187;SDS011;14708;50.872;5.306;2023-06-10T08:39:58;54.58;;;19.70;;
27187;SDS011;14708;50.872;5.306;2023-06-10T08:42:25;51.60;;;17.80;;
27187;SDS011;14708;50.872;5.306;2023-06-10T08:44:58;48.75;;;17.90;;
27187;SDS011;14708;50.872;5.306;2023-06-10T08:47:27;53.28;;;17.85;;
27187;SDS011;14708;50.872;5.306;2023-06-10T08:49:56;54.40;;;16.75;;
27187;SDS011;14708;50.872;5.306;2023-06-10T08:52:28;46.88;;;17.40;;
27187;SDS011;14708;50.872;5.306;2023-06-10T08:55:00;47.65;;;17.55;;
27187;SDS011;14708;50.872;5.306;2023-06-10T08:57:29;41.92;;;16.98;;
27187;SDS011;14708;50.872;5.306;2023-06-10T08:59:56;48.08;;;15.88;;
27187;SDS011;14708;50.872;5.306;2023-06-10T09:02:23;38.10;;;16.40;;
27187;SDS011;14708;50.872;5.306;2023-06-10T09:04:49;41.63;;;15.88;;
27187;SDS011;14708;50.872;5.306;2023-06-10T09:07:15;41.10;;;15.82;;
27187;SDS011;14708;50.872;5.306;2023-06-10T09:09:42;38.75;;;14.75;;
27187;SDS011;14708;50.872;5.306;2023-06-10T09:12:09;45.83;;;15.43;;
27187;SDS011;14708;50.872;5.306;2023-06-10T09:14:35;36.60;;;14.95;;
27187;SDS011;14708;50.872;5.306;2023-06-10T09:17:02;34.22;;;14.43;;
27187;SDS011;14708;50.872;5.306;2023-06-10T09:19:28;34.08;;;14.88;;
27187;SDS011;14708;50.872;5.306;2023-06-10T09:21:54;38.80;;;14.93;;
27187;SDS011;14708;50.872;5.306;2023-06-10T09:24:21;27.60;;;13.73;;
27187;SDS011;14708;50.872;5.306;2023-06-10T09:26:48;34.03;;;13.27;;
27187;SDS011;14708;50.872;5.306;2023-06-10T09:29:15;31.20;;;14.10;;
27187;SDS011;14708;50.872;5.306;2023-06-10T09:31:42;34.60;;;13.90;;
27187;SDS011;14708;50.872;5.306;2023-06-10T09:34:09;32.10;;;14.02;;
27187;SDS011;14708;50.872;5.306;2023-06-10T09:36:35;27.45;;;12.27;;
27187;SDS011;14708;50.872;5.306;2023-06-10T09:39:02;25.77;;;12.20;;
27187;SDS011;14708;50.872;5.306;2023-06-10T09:41:32;25.02;;;12.02;;
27187;SDS011;14708;50.872;5.306;2023-06-10T09:44:09;30.42;;;12.70;;
27187;SDS011;14708;50.872;5.306;2023-06-10T09:46:40;25.98;;;12.68;;
27187;SDS011;14708;50.872;5.306;2023-06-10T09:49:06;27.40;;;11.43;;
27187;SDS011;14708;50.872;5.306;2023-06-10T09:51:32;21.30;;;10.93;;
27187;SDS011;14708;50.872;5.306;2023-06-10T09:53:58;22.02;;;10.93;;
27187;SDS011;14708;50.872;5.306;2023-06-10T09:56:33;24.17;;;11.02;;
27187;SDS011;14708;50.872;5.306;2023-06-10T09:59:00;18.65;;;10.45;;
27187;SDS011;14708;50.872;5.306;2023-06-10T10:01:25;18.35;;;9.60;;
27187;SDS011;14708;50.872;5.306;2023-06-10T10:03:51;21.58;;;10.00;;
27187;SDS011;14708;50.872;5.306;2023-06-10T10:06:17;19.48;;;9.63;;
27187;SDS011;14708;50.872;5.306;2023-06-10T10:08:45;24.98;;;10.38;;
27187;SDS011;14708;50.872;5.306;2023-06-10T10:11:11;19.23;;;9.23;;
27187;SDS011;14708;50.872;5.306;2023-06-10T10:13:38;18.40;;;9.27;;
27187;SDS011;14708;50.872;5.306;2023-06-10T10:16:15;21.15;;;9.38;;
27187;SDS011;14708;50.872;5.306;2023-06-10T10:18:43;18.27;;;9.77;;
27187;SDS011;14708;50.872;5.306;2023-06-10T10:21:21;18.98;;;9.50;;
27187;SDS011;14708;50.872;5.306;2023-06-10T10:23:53;17.23;;;9.60;;
27187;SDS011;14708;50.872;5.306;2023-06-10T10:26:26;17.42;;;8.93;;
27187;SDS011;14708;50.872;5.306;2023-06-10T10:29:04;18.70;;;9.45;;
27187;SDS011;14708;50.872;5.306;2023-06-10T10:31:34;14.98;;;9.55;;
27187;SDS011;14708;50.872;5.306;2023-06-10T10:34:02;19.90;;;9.43;;
27187;SDS011;14708;50.872;5.306;2023-06-10T10:36:32;21.48;;;9.40;;
27187;SDS011;14708;50.872;5.306;2023-06-10T10:38:58;16.75;;;9.30;;
27187;SDS011;14708;50.872;5.306;2023-06-10T10:41:27;14.02;;;7.93;;
27187;SDS011;14708;50.872;5.306;2023-06-10T10:43:53;15.25;;;8.00;;
27187;SDS011;14708;50.872;5.306;2023-06-10T10:46:19;12.77;;;7.28;;
27187;SDS011;14708;50.872;5.306;2023-06-10T10:48:49;11.82;;;7.28;;
27187;SDS011;14708;50.872;5.306;2023-06-10T10:51:18;14.73;;;7.80;;
27187;SDS011;14708;50.872;5.306;2023-06-10T10:53:44;12.45;;;7.18;;
27187;SDS011;14708;50.872;5.306;2023-06-10T10:56:29;12.90;;;6.88;;
27187;SDS011;14708;50.872;5.306;2023-06-10T10:59:04;10.57;;;6.63;;
27187;SDS011;14708;50.872;5.306;2023-06-10T11:01:40;11.32;;;6.85;;
27187;SDS011;14708;50.872;5.306;2023-06-10T11:04:07;9.88;;;6.80;;
27187;SDS011;14708;50.872;5.306;2023-06-10T11:06:36;12.13;;;7.53;;
27187;SDS011;14708;50.872;5.306;2023-06-10T11:09:02;9.05;;;6.75;;
27187;SDS011;14708;50.872;5.306;2023-06-10T11:11:50;10.27;;;6.88;;
27187;SDS011;14708;50.872;5.306;2023-06-10T11:14:16;11.80;;;6.90;;
27187;SDS011;14708;50.872;5.306;2023-06-10T11:16:58;8.68;;;6.68;;
27187;SDS011;14708;50.872;5.306;2023-06-10T11:19:34;8.90;;;7.15;;
27187;SDS011;14708;50.872;5.306;2023-06-10T11:22:01;10.85;;;6.72;;
27187;SDS011;14708;50.872;5.306;2023-06-10T11:24:29;9.80;;;6.72;;
27187;SDS011;14708;50.872;5.306;2023-06-10T11:26:55;9.73;;;7.35;;
27187;SDS011;14708;50.872;5.306;2023-06-10T11:29:39;9.00;;;6.25;;
27187;SDS011;14708;50.872;5.306;2023-06-10T11:32:05;15.07;;;6.07;;
27187;SDS011;14708;50.872;5.306;2023-06-10T11:34:31;16.38;;;6.63;;
27187;SDS011;14708;50.872;5.306;2023-06-10T11:36:57;10.93;;;6.15;;
27187;SDS011;14708;50.872;5.306;2023-06-10T11:39:25;8.35;;;5.97;;
27187;SDS011;14708;50.872;5.306;2023-06-10T11:41:51;12.10;;;6.40;;
27187;SDS011;14708;50.872;5.306;2023-06-10T11:44:17;9.27;;;6.05;;
27187;SDS011;14708;50.872;5.306;2023-06-10T11:46:43;10.88;;;6.68;;
27187;SDS011;14708;50.872;5.306;2023-06-10T11:49:11;12.82;;;7.68;;
27187;SDS011;14708;50.872;5.306;2023-06-10T11:51:38;10.10;;;5.82;;
27187;SDS011;14708;50.872;5.306;2023-06-10T11:54:05;9.25;;;6.50;;
27187;SDS011;14708;50.872;5.306;2023-06-10T11:56:34;9.15;;;6.55;;
27187;SDS011;14708;50.872;5.306;2023-06-10T12:01:31;12.13;;;6.72;;
27187;SDS011;14708;50.872;5.306;2023-06-10T12:03:59;9.57;;;6.70;;
27187;SDS011;14708;50.872;5.306;2023-06-10T12:06:24;8.82;;;6.05;;
27187;SDS011;14708;50.872;5.306;2023-06-10T12:08:50;11.85;;;7.00;;
27187;SDS011;14708;50.872;5.306;2023-06-10T12:11:16;7.80;;;6.22;;
27187;SDS011;14708;50.872;5.306;2023-06-10T12:13:45;10.25;;;6.45;;
27187;SDS011;14708;50.872;5.306;2023-06-10T12:16:13;12.90;;;6.68;;
27187;SDS011;14708;50.872;5.306;2023-06-10T12:18:39;9.30;;;6.75;;
27187;SDS011;14708;50.872;5.306;2023-06-10T12:21:15;6.70;;;5.60;;
27187;SDS011;14708;50.872;5.306;2023-06-10T12:24:01;11.15;;;7.25;;
27187;SDS011;14708;50.872;5.306;2023-06-10T12:29:21;7.72;;;6.63;;
27187;SDS011;14708;50.872;5.306;2023-06-10T12:32:07;10.02;;;6.47;;
27187;SDS011;14708;50.872;5.306;2023-06-10T12:34:34;7.15;;;6.45;;
27187;SDS011;14708;50.872;5.306;2023-06-10T12:37:05;10.07;;;6.15;;
27187;SDS011;14708;50.872;5.306;2023-06-10T12:39:40;9.68;;;6.97;;
27187;SDS011;14708;50.872;5.306;2023-06-10T12:42:06;14.02;;;6.35;;
27187;SDS011;14708;50.872;5.306;2023-06-10T12:44:35;10.77;;;6.43;;
27187;SDS011;14708;50.872;5.306;2023-06-10T12:47:10;12.63;;;7.45;;
27187;SDS011;14708;50.872;5.306;2023-06-10T12:49:39;10.32;;;6.63;;
27187;SDS011;14708;50.872;5.306;2023-06-10T12:52:05;12.40;;;6.88;;
27187;SDS011;14708;50.872;5.306;2023-06-10T12:54:32;11.77;;;6.82;;
27187;SDS011;14708;50.872;5.306;2023-06-10T12:56:58;10.75;;;6.32;;
27187;SDS011;14708;50.872;5.306;2023-06-10T12:59:23;14.15;;;7.00;;
27187;SDS011;14708;50.872;5.306;2023-06-10T13:01:52;12.27;;;7.65;;
27187;SDS011;14708;50.872;5.306;2023-06-10T13:04:18;11.25;;;7.15;;
27187;SDS011;14708;50.872;5.306;2023-06-10T13:06:45;11.23;;;6.63;;
27187;SDS011;14708;50.872;5.306;2023-06-10T13:09:11;10.05;;;5.75;;
27187;SDS011;14708;50.872;5.306;2023-06-10T13:11:37;17.25;;;7.15;;
27187;SDS011;14708;50.872;5.306;2023-06-10T13:14:04;14.20;;;6.10;;
27187;SDS011;14708;50.872;5.306;2023-06-10T13:16:31;11.27;;;6.93;;
27187;SDS011;14708;50.872;5.306;2023-06-10T13:18:57;11.05;;;6.47;;
27187;SDS011;14708;50.872;5.306;2023-06-10T13:21:23;10.05;;;6.28;;
27187;SDS011;14708;50.872;5.306;2023-06-10T13:23:50;9.10;;;6.00;;
27187;SDS011;14708;50.872;5.306;2023-06-10T13:26:16;14.35;;;6.45;;
27187;SDS011;14708;50.872;5.306;2023-06-10T13:28:44;9.20;;;5.88;;
27187;SDS011;14708;50.872;5.306;2023-06-10T13:31:10;7.20;;;4.83;;
27187;SDS011;14708;50.872;5.306;2023-06-10T13:33:36;11.40;;;5.63;;
27187;SDS011;14708;50.872;5.306;2023-06-10T13:36:02;7.65;;;5.70;;
27187;SDS011;14708;50.872;5.306;2023-06-10T13:38:28;9.95;;;5.57;;
27187;SDS011;14708;50.872;5.306;2023-06-10T13:40:54;11.48;;;5.78;;
27187;SDS011;14708;50.872;5.306;2023-06-10T13:43:19;7.85;;;5.95;;
27187;SDS011;14708;50.872;5.306;2023-06-10T13:45:45;11.00;;;5.60;;
27187;SDS011;14708;50.872;5.306;2023-06-10T13:48:11;7.45;;;5.57;;
27187;SDS011;14708;50.872;5.306;2023-06-10T13:50:37;8.15;;;5.55;;
27187;SDS011;14708;50.872;5.306;2023-06-10T13:53:03;9.65;;;5.85;;
27187;SDS011;14708;50.872;5.306;2023-06-10T13:55:28;11.25;;;6.28;;
27187;SDS011;14708;50.872;5.306;2023-06-10T13:57:54;11.68;;;6.15;;
27187;SDS011;14708;50.872;5.306;2023-06-10T14:00:20;12.65;;;6.47;;
27187;SDS011;14708;50.872;5.306;2023-06-10T14:02:46;11.45;;;6.28;;
27187;SDS011;14708;50.872;5.306;2023-06-10T14:05:11;16.08;;;7.22;;
27187;SDS011;14708;50.872;5.306;2023-06-10T14:07:37;14.02;;;7.32;;
27187;SDS011;14708;50.872;5.306;2023-06-10T14:10:03;16.02;;;6.97;;
27187;SDS011;14708;50.872;5.306;2023-06-10T14:12:29;17.65;;;7.47;;
27187;SDS011;14708;50.872;5.306;2023-06-10T14:14:54;17.55;;;7.43;;
27187;SDS011;14708;50.872;5.306;2023-06-10T14:17:20;14.15;;;6.95;;
27187;SDS011;14708;50.872;5.306;2023-06-10T14:19:47;20.33;;;8.02;;
27187;SDS011;14708;50.872;5.306;2023-06-10T14:22:13;15.07;;;7.07;;
27187;SDS011;14708;50.872;5.306;2023-06-10T14:24:38;13.52;;;7.38;;
27187;SDS011;14708;50.872;5.306;2023-06-10T14:27:04;17.63;;;8.00;;
27187;SDS011;14708;50.872;5.306;2023-06-10T14:29:30;18.27;;;8.10;;
27187;SDS011;14708;50.872;5.306;2023-06-10T14:31:56;15.45;;;6.95;;
27187;SDS011;14708;50.872;5.306;2023-06-10T14:34:22;17.42;;;6.95;;
27187;SDS011;14708;50.872;5.306;2023-06-10T14:36:53;15.50;;;7.72;;
27187;SDS011;14708;50.872;5.306;2023-06-10T14:39:19;15.13;;;6.97;;
27187;SDS011;14708;50.872;5.306;2023-06-10T14:41:45;15.02;;;7.28;;
27187;SDS011;14708;50.872;5.306;2023-06-10T14:44:10;11.57;;;6.97;;
27187;SDS011;14708;50.872;5.306;2023-06-10T14:46:36;15.82;;;7.72;;
27187;SDS011;14708;50.872;5.306;2023-06-10T14:49:02;15.77;;;7.05;;
27187;SDS011;14708;50.872;5.306;2023-06-10T14:51:27;13.10;;;7.10;;
27187;SDS011;14708;50.872;5.306;2023-06-10T14:53:53;14.60;;;7.60;;
27187;SDS011;14708;50.872;5.306;2023-06-10T14:56:18;16.63;;;6.87;;